createdAt,value
2022-10-11T00:01:01.200Z,2.10
2022-10-11T00:03:36.359Z,2.08
2022-10-11T00:06:06.630Z,2.08
2022-10-11T00:08:35.321Z,2.09
2022-10-11T00:11:07.554Z,2.11
2022-10-11T00:13:36.044Z,2.12
2022-10-11T00:16:09.985Z,2.12
2022-10-11T00:18:39.276Z,2.08
2022-10-11T00:21:12.160Z,2.05
2022-10-11T00:23:41.163Z,2.01
2022-10-11T00:26:11.421Z,1.96
2022-10-11T00:28:40.595Z,1.92
2022-10-11T00:31:15.894Z,1.88
2022-10-11T00:33:44.397Z,1.83
2022-10-11T00:36:17.386Z,1.79
2022-10-11T00:38:46.310Z,1.77
2022-10-11T00:41:16.583Z,1.76
2022-10-11T00:43:45.249Z,1.75
2022-10-11T00:46:19.330Z,1.76
2022-10-11T00:48:53.751Z,1.78
2022-10-11T00:51:41.827Z,1.77
2022-10-11T00:54:14.999Z,1.72
2022-10-11T00:56:45.965Z,1.66
2022-10-11T00:59:23.507Z,1.60
2022-10-11T01:01:52.305Z,1.58
2022-10-11T01:04:20.889Z,1.55
2022-10-11T01:06:50.735Z,1.54
2022-10-11T01:09:21.407Z,1.54
2022-10-11T01:11:51.998Z,1.54
2022-10-11T01:14:35.433Z,1.52
2022-10-11T01:17:26.844Z,1.47
2022-10-11T01:20:26.899Z,1.44
2022-10-11T01:23:22.436Z,1.44
2022-10-11T01:26:39.616Z,1.47
2022-10-11T01:29:49.540Z,1.50
2022-10-11T01:32:28.056Z,1.51
2022-10-11T01:35:33.699Z,1.43
2022-10-11T01:38:13.369Z,1.30
2022-10-11T01:40:56.093Z,1.23
2022-10-11T01:43:26.572Z,1.20
2022-10-11T01:45:57.638Z,1.19
2022-10-11T01:48:26.015Z,1.20
2022-10-11T01:51:02.176Z,1.22
2022-10-11T01:53:45.327Z,1.24
2022-10-11T01:56:57.434Z,1.24
2022-10-11T02:00:09.733Z,1.23
2022-10-11T02:02:41.738Z,1.22
2022-10-11T02:05:20.421Z,1.22
2022-10-11T02:08:23.740Z,1.21
2022-10-11T02:11:23.822Z,1.16
2022-10-11T02:14:19.612Z,1.12
2022-10-11T02:17:01.424Z,1.04
2022-10-11T02:19:36.023Z,0.97
2022-10-11T02:22:22.204Z,0.91
2022-10-11T02:24:56.155Z,0.88
2022-10-11T02:27:30.574Z,0.85
2022-10-11T02:30:02.480Z,0.84
2022-10-11T02:32:33.134Z,0.81
2022-10-11T02:35:02.967Z,0.77
2022-10-11T02:37:53.356Z,0.74
2022-10-11T02:40:31.240Z,0.71
2022-10-11T02:43:05.602Z,0.69
2022-10-11T02:45:48.878Z,0.67
2022-10-11T02:48:18.146Z,0.68
2022-10-11T02:50:46.526Z,0.70
2022-10-11T02:53:14.725Z,0.73
2022-10-11T02:55:42.869Z,0.77
2022-10-11T02:58:11.013Z,0.75
2022-10-11T03:00:39.450Z,0.69
2022-10-11T03:03:07.671Z,0.66
2022-10-11T03:05:40.746Z,0.60
2022-10-11T03:08:10.941Z,0.57
2022-10-11T03:10:40.279Z,0.54
2022-10-11T03:13:08.881Z,0.52
2022-10-11T03:15:37.277Z,0.53
2022-10-11T03:18:05.565Z,0.56
2022-10-11T03:20:33.765Z,0.58
2022-10-11T03:23:01.877Z,0.58
2022-10-11T03:25:30.117Z,0.52
2022-10-11T03:27:58.372Z,0.47
2022-10-11T03:30:27.291Z,0.45
2022-10-11T03:32:55.501Z,0.45
2022-10-11T03:35:23.708Z,0.47
2022-10-11T03:37:51.884Z,0.48
2022-10-11T03:40:20.149Z,0.51
2022-10-11T03:42:48.337Z,0.53
2022-10-11T03:45:16.594Z,0.52
2022-10-11T03:47:44.822Z,0.50
2022-10-11T03:50:12.973Z,0.45
2022-10-11T03:52:41.121Z,0.42
2022-10-11T03:55:09.480Z,0.41
2022-10-11T03:57:37.683Z,0.41
2022-10-11T04:00:07.318Z,0.42
2022-10-11T04:02:39.075Z,0.44
2022-10-11T04:05:08.170Z,0.44
2022-10-11T04:07:36.368Z,0.43
2022-10-11T04:10:05.933Z,0.41
2022-10-11T04:12:34.996Z,0.40
2022-10-11T04:15:03.773Z,0.40
2022-10-11T04:17:31.984Z,0.38
2022-10-11T04:20:00.476Z,0.40
2022-10-11T04:22:28.676Z,0.43
2022-10-11T04:24:56.798Z,0.44
2022-10-11T04:27:28.371Z,0.44
2022-10-11T04:29:56.720Z,0.42
2022-10-11T04:32:24.929Z,0.40
2022-10-11T04:34:53.294Z,0.41
2022-10-11T04:37:21.849Z,0.42
2022-10-11T04:39:50.066Z,0.44
2022-10-11T04:42:18.325Z,0.48
2022-10-11T04:44:46.876Z,0.52
2022-10-11T04:47:15.198Z,0.57
2022-10-11T04:49:43.361Z,0.58
2022-10-11T04:52:11.611Z,0.59
2022-10-11T04:54:39.753Z,0.62
2022-10-11T04:57:07.966Z,0.66
2022-10-11T04:59:36.128Z,0.69
2022-10-11T05:02:04.367Z,0.72
2022-10-11T05:04:32.893Z,0.75
2022-10-11T05:07:01.131Z,0.82
2022-10-11T05:09:29.299Z,0.88
2022-10-11T05:11:57.729Z,0.93
2022-10-11T05:14:25.960Z,0.96
2022-10-11T05:16:54.108Z,1.02
2022-10-11T05:19:22.390Z,1.08
2022-10-11T05:21:50.698Z,1.16
2022-10-11T05:24:18.889Z,1.23
2022-10-11T05:26:47.076Z,1.32
2022-10-11T05:29:15.205Z,1.42
2022-10-11T05:31:43.406Z,1.53
2022-10-11T05:34:11.606Z,1.67
2022-10-11T05:36:39.918Z,1.81
2022-10-11T05:39:08.238Z,1.96
2022-10-11T05:41:36.608Z,2.09
2022-10-11T05:44:05.233Z,2.23
2022-10-11T05:46:33.547Z,2.36
2022-10-11T05:49:01.992Z,2.52
2022-10-11T05:51:30.521Z,2.70
2022-10-11T05:53:58.821Z,2.88
2022-10-11T05:56:27.266Z,3.08
2022-10-11T05:58:59.944Z,3.27
2022-10-11T06:01:30.578Z,3.42
2022-10-11T06:03:58.930Z,3.56
2022-10-11T06:06:27.250Z,3.67
2022-10-11T06:08:55.628Z,3.78
2022-10-11T06:11:27.637Z,3.91
2022-10-11T06:14:00.643Z,4.06
2022-10-11T06:16:29.022Z,4.22
2022-10-11T06:18:57.764Z,4.33
2022-10-11T06:21:26.411Z,4.43
2022-10-11T06:24:00.814Z,4.54
2022-10-11T06:26:30.509Z,4.68
2022-10-11T06:28:59.252Z,4.87
2022-10-11T06:31:27.716Z,5.04
2022-10-11T06:33:56.091Z,5.21
2022-10-11T06:36:24.979Z,5.33
2022-10-11T06:38:55.098Z,5.48
2022-10-11T06:41:26.911Z,5.63
2022-10-11T06:43:56.274Z,5.82
2022-10-11T06:46:27.696Z,5.99
2022-10-11T06:48:56.607Z,6.17
2022-10-11T06:51:25.911Z,6.31
2022-10-11T06:53:57.984Z,6.46
2022-10-11T06:56:28.095Z,6.60
2022-10-11T06:58:58.576Z,6.81
2022-10-11T07:01:28.112Z,7.00
2022-10-11T07:03:58.151Z,7.16
2022-10-11T07:06:29.397Z,7.34
2022-10-11T07:09:00.417Z,7.53
2022-10-11T07:11:29.651Z,7.71
2022-10-11T07:14:04.353Z,7.91
2022-10-11T07:16:32.765Z,8.13
2022-10-11T07:19:03.336Z,8.37
2022-10-11T07:21:34.210Z,8.57
2022-10-11T07:24:03.329Z,8.78
2022-10-11T07:26:38.231Z,8.96
2022-10-11T07:29:09.610Z,9.15
2022-10-11T07:31:43.655Z,9.33
2022-10-11T07:34:12.185Z,9.49
2022-10-11T07:36:40.574Z,9.63
2022-10-11T07:39:08.981Z,9.79
2022-10-11T07:41:43.108Z,9.96
2022-10-11T07:44:14.853Z,10.11
2022-10-11T07:46:43.014Z,10.28
2022-10-11T07:49:11.216Z,10.44
2022-10-11T07:51:39.400Z,10.62
2022-10-11T07:54:07.757Z,10.79
2022-10-11T07:56:38.082Z,11.00
2022-10-11T07:59:06.550Z,11.20
2022-10-11T08:01:34.781Z,11.40
2022-10-11T08:04:03.270Z,11.57
2022-10-11T08:06:32.840Z,11.75
2022-10-11T08:09:02.144Z,11.95
2022-10-11T08:11:37.989Z,12.09
2022-10-11T08:14:11.300Z,12.21
2022-10-11T08:16:39.915Z,12.29
2022-10-11T08:19:08.137Z,12.46
2022-10-11T08:21:36.483Z,12.64
2022-10-11T08:24:06.204Z,12.79
2022-10-11T08:26:34.967Z,12.95
2022-10-11T08:29:04.101Z,13.11
2022-10-11T08:31:34.084Z,13.19
2022-10-11T08:34:02.872Z,13.30
2022-10-11T08:36:31.240Z,13.37
2022-10-11T08:39:01.206Z,13.56
2022-10-11T08:41:46.353Z,13.66
2022-10-11T08:45:05.859Z,13.67
2022-10-11T08:47:37.142Z,13.78
2022-10-11T08:50:08.339Z,13.91
2022-10-11T08:53:04.209Z,14.11
2022-10-11T08:55:44.206Z,14.27
2022-10-11T08:58:18.087Z,14.37
2022-10-11T09:00:48.342Z,14.49
2022-10-11T09:03:39.572Z,14.59
2022-10-11T09:06:54.948Z,14.58
2022-10-11T09:09:38.715Z,14.66
2022-10-11T09:12:45.043Z,14.87
2022-10-11T09:15:38.338Z,15.15
2022-10-11T09:18:58.231Z,15.22
2022-10-11T09:22:08.597Z,15.38
2022-10-11T09:25:06.025Z,15.64
2022-10-11T09:28:04.487Z,15.80
2022-10-11T09:30:33.533Z,15.85
2022-10-11T09:33:24.797Z,15.97
2022-10-11T09:35:53.090Z,16.06
2022-10-11T09:38:54.578Z,16.02
2022-10-11T09:41:52.606Z,16.25
2022-10-11T09:44:27.420Z,16.48
2022-10-11T09:46:57.468Z,16.71
2022-10-11T09:49:34.070Z,16.72
2022-10-11T09:52:07.111Z,16.77
2022-10-11T09:54:48.220Z,16.84
2022-10-11T09:57:31.960Z,16.86
2022-10-11T10:00:19.814Z,16.97
2022-10-11T10:02:51.626Z,17.21
2022-10-11T10:05:31.685Z,17.34
2022-10-11T10:08:07.208Z,17.08
2022-10-11T10:10:41.043Z,17.11
2022-10-11T10:13:41.851Z,17.35
2022-10-11T10:16:30.548Z,17.51
2022-10-11T10:19:06.867Z,17.44
2022-10-11T10:21:46.746Z,17.45
2022-10-11T10:24:33.553Z,17.45
2022-10-11T10:27:10.503Z,17.59
2022-10-11T10:29:39.623Z,17.87
2022-10-11T10:32:23.778Z,18.07
2022-10-11T10:35:09.586Z,17.96
2022-10-11T10:37:56.830Z,17.97
2022-10-11T10:40:43.665Z,18.49
2022-10-11T10:43:18.156Z,18.77
2022-10-11T10:46:06.107Z,19.08
2022-10-11T10:49:28.422Z,19.65
2022-10-11T10:51:48.318Z,19.49
2022-10-11T10:54:34.965Z,19.30
2022-10-11T10:57:28.621Z,19.39
2022-10-11T11:00:19.647Z,19.49
2022-10-11T11:03:11.340Z,19.90
2022-10-11T11:06:07.799Z,20.54
2022-10-11T11:09:10.167Z,21.05
2022-10-11T11:11:53.128Z,21.55
2022-10-11T11:14:29.395Z,21.04
2022-10-11T11:17:19.401Z,21.67
2022-10-11T11:20:18.791Z,21.82
2022-10-11T11:23:11.646Z,22.71
2022-10-11T11:25:59.254Z,23.14
2022-10-11T11:28:50.434Z,22.66
2022-10-11T11:31:49.936Z,22.76
2022-10-11T11:34:37.129Z,23.20
2022-10-11T11:37:32.390Z,23.46
2022-10-11T11:40:15.649Z,23.15
2022-10-11T11:42:59.727Z,23.18
2022-10-11T11:45:45.713Z,23.38
2022-10-11T11:48:27.217Z,22.26
2022-10-11T11:51:21.996Z,22.22
2022-10-11T11:54:28.311Z,22.09
2022-10-11T11:57:23.897Z,21.96
2022-10-11T12:00:03.844Z,21.17
2022-10-11T12:02:48.055Z,21.16
2022-10-11T12:05:22.004Z,21.00
2022-10-11T12:08:28.182Z,20.48
2022-10-11T12:11:01.420Z,20.80
2022-10-11T12:13:37.560Z,21.18
2022-10-11T12:16:15.710Z,21.30
2022-10-11T12:19:03.943Z,21.59
2022-10-11T12:21:37.163Z,21.93
2022-10-11T12:24:20.615Z,21.99
2022-10-11T12:26:54.366Z,21.85
2022-10-11T12:29:46.258Z,21.98
2022-10-11T12:32:36.273Z,22.34
2022-10-11T12:35:32.337Z,22.74
2022-10-11T12:38:28.890Z,22.32
2022-10-11T12:41:09.086Z,22.12
2022-10-11T12:43:49.311Z,22.28
2022-10-11T12:47:10.187Z,21.56
2022-10-11T12:50:02.836Z,21.16
2022-10-11T12:52:50.918Z,20.78
2022-10-11T12:55:52.169Z,20.42
2022-10-11T12:58:44.149Z,20.17
2022-10-11T13:01:25.573Z,20.15
2022-10-11T13:04:05.145Z,20.24
2022-10-11T13:06:44.621Z,20.14
2022-10-11T13:09:39.350Z,20.12
2022-10-11T13:12:21.566Z,20.19
2022-10-11T13:15:03.994Z,20.28
2022-10-11T13:17:38.627Z,20.33
2022-10-11T13:20:18.611Z,20.54
2022-10-11T13:22:53.391Z,20.53
2022-10-11T13:25:27.279Z,20.85
2022-10-11T13:27:57.816Z,21.65
2022-10-11T13:30:31.772Z,22.21
2022-10-11T13:33:01.792Z,22.50
2022-10-11T13:35:32.580Z,22.35
2022-10-11T13:38:02.786Z,22.60
2022-10-11T13:40:31.754Z,23.07
2022-10-11T13:43:00.325Z,23.06
2022-10-11T13:45:30.804Z,23.40
2022-10-11T13:47:59.371Z,24.12
2022-10-11T13:50:35.375Z,23.76
2022-10-11T13:53:23.598Z,23.71
2022-10-11T13:55:59.461Z,23.77
2022-10-11T13:58:30.325Z,23.74
2022-10-11T14:01:07.924Z,24.11
2022-10-11T14:04:02.773Z,24.26
2022-10-11T14:06:58.267Z,24.46
2022-10-11T14:09:36.997Z,24.56
2022-10-11T14:12:44.394Z,24.98
2022-10-11T14:15:27.365Z,25.32
2022-10-11T14:17:55.616Z,25.30
2022-10-11T14:20:41.820Z,25.14
2022-10-11T14:23:10.039Z,24.95
2022-10-11T14:25:38.253Z,24.70
2022-10-11T14:28:13.083Z,24.54
2022-10-11T14:30:42.395Z,24.17
2022-10-11T14:33:12.064Z,24.05
2022-10-11T14:35:41.745Z,23.63
2022-10-11T14:38:12.127Z,23.20
2022-10-11T14:40:40.482Z,22.71
2022-10-11T14:43:08.629Z,22.60
2022-10-11T14:45:36.974Z,22.94
2022-10-11T14:48:05.331Z,23.21
2022-10-11T14:50:51.966Z,23.16
2022-10-11T14:53:20.457Z,22.77
2022-10-11T14:55:49.119Z,21.97
2022-10-11T14:58:18.374Z,21.13
2022-10-11T15:00:46.625Z,20.51
2022-10-11T15:03:15.531Z,19.97
2022-10-11T15:05:43.715Z,19.40
2022-10-11T15:08:12.216Z,18.77
2022-10-11T15:10:41.494Z,18.20
2022-10-11T15:13:10.224Z,17.65
2022-10-11T15:15:41.539Z,17.13
2022-10-11T15:18:13.658Z,16.66
2022-10-11T15:20:45.106Z,16.12
2022-10-11T15:23:13.990Z,15.63
2022-10-11T15:25:42.885Z,15.20
2022-10-11T15:28:31.399Z,14.73
2022-10-11T15:31:00.725Z,14.25
2022-10-11T15:33:29.062Z,13.81
2022-10-11T15:35:57.302Z,13.42
2022-10-11T15:38:26.069Z,13.06
2022-10-11T15:40:54.667Z,12.67
2022-10-11T15:43:24.904Z,12.31
2022-10-11T15:45:55.508Z,11.98
2022-10-11T15:48:26.465Z,11.70
2022-10-11T15:50:55.477Z,11.41
2022-10-11T15:53:30.125Z,11.15
2022-10-11T15:56:03.793Z,10.92
2022-10-11T15:58:41.658Z,10.73
2022-10-11T16:01:18.863Z,10.58
2022-10-11T16:03:49.307Z,10.44
2022-10-11T16:06:18.980Z,10.31
2022-10-11T16:08:48.051Z,10.19
2022-10-11T16:11:16.287Z,10.08
2022-10-11T16:13:45.239Z,9.97
2022-10-11T16:16:13.457Z,9.88
2022-10-11T16:18:41.631Z,9.77
2022-10-11T16:21:13.457Z,9.69
2022-10-11T16:23:42.122Z,9.62
2022-10-11T16:26:16.374Z,9.58
2022-10-11T16:28:44.638Z,9.54
2022-10-11T16:31:20.680Z,9.49
2022-10-11T16:33:50.267Z,9.47
2022-10-11T16:36:32.544Z,9.42
2022-10-11T16:39:03.832Z,9.38
2022-10-11T16:41:32.002Z,9.35
2022-10-11T16:44:00.325Z,9.32
2022-10-11T16:46:28.733Z,9.33
2022-10-11T16:48:57.026Z,9.35
2022-10-11T16:51:25.417Z,9.37
2022-10-11T16:53:53.679Z,9.42
2022-10-11T16:56:24.210Z,9.47
2022-10-11T16:58:53.514Z,9.53
2022-10-11T17:01:22.421Z,9.58
2022-10-11T17:03:51.255Z,9.61
2022-10-11T17:06:20.038Z,9.63
2022-10-11T17:08:48.218Z,9.63
2022-10-11T17:11:21.758Z,9.63
2022-10-11T17:13:53.307Z,9.61
2022-10-11T17:16:22.838Z,9.59
2022-10-11T17:18:51.046Z,9.60
2022-10-11T17:21:21.867Z,9.62
2022-10-11T17:23:50.656Z,9.66
2022-10-11T17:26:26.268Z,9.69
2022-10-11T17:28:57.484Z,9.73
2022-10-11T17:31:26.581Z,9.78
2022-10-11T17:33:57.648Z,9.82
2022-10-11T17:36:34.607Z,9.85
2022-10-11T17:39:07.811Z,9.85
2022-10-11T17:41:36.345Z,9.83
2022-10-11T17:44:05.135Z,9.81
2022-10-11T17:46:34.125Z,9.78
2022-10-11T17:49:07.215Z,9.77
2022-10-11T17:51:37.222Z,9.72
2022-10-11T17:54:06.413Z,9.68
2022-10-11T17:56:38.296Z,9.66
2022-10-11T17:59:08.257Z,9.64
2022-10-11T18:01:36.923Z,9.62
2022-10-11T18:04:06.376Z,9.59
2022-10-11T18:06:39.753Z,9.57
2022-10-11T18:09:08.107Z,9.52
2022-10-11T18:11:36.394Z,9.46
2022-10-11T18:14:05.395Z,9.43
2022-10-11T18:16:34.871Z,9.42
2022-10-11T18:19:07.189Z,9.41
2022-10-11T18:21:37.779Z,9.41
2022-10-11T18:24:15.166Z,9.39
2022-10-11T18:26:45.411Z,9.37
2022-10-11T18:29:15.497Z,9.36
2022-10-11T18:31:43.768Z,9.35
2022-10-11T18:34:13.929Z,9.37
2022-10-11T18:36:42.494Z,9.39
2022-10-11T18:39:14.366Z,9.42
2022-10-11T18:41:44.676Z,9.46
2022-10-11T18:44:15.485Z,9.48
2022-10-11T18:46:44.874Z,9.50
2022-10-11T18:49:13.822Z,9.47
2022-10-11T18:51:43.194Z,9.44
2022-10-11T18:54:15.353Z,9.40
2022-10-11T18:56:46.673Z,9.35
2022-10-11T18:59:15.121Z,9.30
2022-10-11T19:01:45.024Z,9.26
2022-10-11T19:04:16.105Z,9.23
2022-10-11T19:06:47.889Z,9.22
2022-10-11T19:09:24.823Z,9.21
2022-10-11T19:11:55.890Z,9.21
2022-10-11T19:14:31.355Z,9.19
2022-10-11T19:17:00.003Z,9.18
2022-10-11T19:19:29.900Z,9.16
2022-10-11T19:21:58.161Z,9.12
2022-10-11T19:24:28.877Z,9.10
2022-10-11T19:27:02.253Z,9.10
2022-10-11T19:29:32.636Z,9.12
2022-10-11T19:32:03.607Z,9.16
2022-10-11T19:34:32.806Z,9.20
2022-10-11T19:37:01.410Z,9.24
2022-10-11T19:39:30.012Z,9.27
2022-10-11T19:41:58.286Z,9.31
2022-10-11T19:44:26.906Z,9.32
2022-10-11T19:46:55.145Z,9.33
2022-10-11T19:49:25.832Z,9.34
2022-10-11T19:51:55.649Z,9.37
2022-10-11T19:54:24.215Z,9.41
2022-10-11T19:56:52.760Z,9.45
2022-10-11T19:59:21.078Z,9.48
2022-10-11T20:01:53.047Z,9.53
2022-10-11T20:07:10.803Z,9.57
2022-10-11T20:09:39.124Z,9.56
2022-10-11T20:12:07.826Z,9.54
2022-10-11T20:14:35.979Z,9.53
2022-10-11T20:17:04.187Z,9.54
2022-10-11T20:19:32.551Z,9.55
2022-10-11T20:22:01.296Z,9.56
2022-10-11T20:24:33.625Z,9.59
2022-10-11T20:27:05.099Z,9.61
2022-10-11T20:29:33.852Z,9.64
2022-10-11T20:32:01.982Z,9.67
2022-10-11T20:34:30.733Z,9.66
2022-10-11T20:36:59.581Z,9.66
2022-10-11T20:39:27.750Z,9.65
2022-10-11T20:41:55.952Z,9.66
2022-10-11T20:44:24.228Z,9.68
2022-10-11T20:46:52.507Z,9.71
2022-10-11T20:49:20.778Z,9.74
2022-10-11T20:51:49.341Z,9.76
2022-10-11T20:54:17.616Z,9.76
2022-10-11T20:56:46.116Z,9.75
2022-10-11T20:59:14.264Z,9.74
2022-10-11T21:01:42.817Z,9.72
2022-10-11T21:04:20.630Z,9.70
2022-10-11T21:06:49.345Z,9.68
2022-10-11T21:09:17.762Z,9.69
2022-10-11T21:11:46.460Z,9.72
2022-10-11T21:14:15.110Z,9.72
2022-10-11T21:16:43.442Z,9.71
2022-10-11T21:19:15.177Z,9.71
2022-10-11T21:21:46.420Z,9.70
2022-10-11T21:24:16.596Z,9.68
2022-10-11T21:26:44.807Z,9.66
2022-10-11T21:29:13.054Z,9.64
2022-10-11T21:31:41.278Z,9.63
2022-10-11T21:34:09.433Z,9.63
2022-10-11T21:36:37.796Z,9.63
2022-10-11T21:39:05.936Z,9.65
2022-10-11T21:41:34.156Z,9.63
2022-10-11T21:44:02.441Z,9.62
2022-10-11T21:47:01.275Z,9.60
2022-10-11T21:49:20.525Z,9.57
2022-10-11T21:51:48.894Z,9.53
2022-10-11T21:54:19.296Z,9.50
2022-10-11T21:56:47.575Z,9.49
2022-10-11T21:59:16.019Z,9.51
2022-10-11T22:01:44.293Z,9.54
2022-10-11T22:04:12.754Z,9.54
2022-10-11T22:06:40.956Z,9.49
2022-10-11T22:09:09.269Z,9.46
2022-10-11T22:11:37.493Z,9.43
2022-10-11T22:14:05.780Z,9.37
2022-10-11T22:16:36.255Z,9.33
2022-10-11T22:19:04.727Z,9.31
2022-10-11T22:21:32.904Z,9.29
2022-10-11T22:24:01.215Z,9.30
2022-10-11T22:26:31.404Z,9.32
2022-10-11T22:29:00.687Z,9.34
2022-10-11T22:31:30.226Z,9.34
2022-10-11T22:34:00.584Z,9.35
2022-10-11T22:36:33.873Z,9.32
2022-10-11T22:39:07.780Z,9.28
2022-10-11T22:41:37.003Z,9.23
2022-10-11T22:44:05.937Z,9.18
2022-10-11T22:46:34.149Z,9.15
2022-10-11T22:49:02.421Z,9.15
2022-10-11T22:51:30.679Z,9.15
2022-10-11T22:53:59.001Z,9.15
2022-10-11T22:56:27.263Z,9.13
2022-10-11T22:58:55.512Z,9.09
2022-10-11T23:01:23.689Z,9.01
2022-10-11T23:03:51.974Z,8.93
2022-10-11T23:06:20.269Z,8.88
2022-10-11T23:08:48.619Z,8.83
2022-10-11T23:11:16.795Z,8.79
2022-10-11T23:13:44.959Z,8.73
2022-10-11T23:16:14.061Z,8.66
2022-10-11T23:18:42.308Z,8.54
2022-10-11T23:21:10.954Z,8.42
2022-10-11T23:23:39.958Z,8.30
2022-10-11T23:26:15.161Z,8.22
2022-10-11T23:28:43.996Z,8.13
2022-10-11T23:31:16.679Z,8.03
2022-10-11T23:33:46.268Z,7.95
2022-10-11T23:36:24.187Z,7.84
2022-10-11T23:38:57.923Z,7.71
2022-10-11T23:41:30.630Z,7.57
2022-10-11T23:43:58.970Z,7.48
2022-10-11T23:46:27.429Z,7.41
2022-10-11T23:48:55.772Z,7.31
2022-10-11T23:51:24.098Z,7.21
2022-10-11T23:53:52.529Z,7.09
2022-10-11T23:56:20.825Z,6.98
2022-10-11T23:58:49.010Z,6.89
